createdAt,value
2023-05-20T00:02:09.088Z,15.50
2023-05-20T00:04:54.889Z,15.50
2023-05-20T00:07:41.021Z,15.40
2023-05-20T00:10:27.561Z,15.40
2023-05-20T00:13:12.961Z,15.40
2023-05-20T00:15:58.656Z,15.40
2023-05-20T00:18:44.494Z,15.40
2023-05-20T00:21:29.796Z,15.40
2023-05-20T00:24:15.092Z,15.30
2023-05-20T00:27:00.764Z,15.30
2023-05-20T00:29:46.452Z,15.30
2023-05-20T00:32:31.806Z,15.30
2023-05-20T00:35:17.373Z,15.30
2023-05-20T00:38:03.121Z,15.30
2023-05-20T00:40:48.718Z,15.30
2023-05-20T00:43:34.333Z,15.20
2023-05-20T00:46:20.080Z,15.20
2023-05-20T00:49:05.869Z,15.20
2023-05-20T00:51:51.565Z,15.20
2023-05-20T00:54:37.237Z,15.20
2023-05-20T00:57:22.887Z,15.20
2023-05-20T01:00:10.477Z,15.20
2023-05-20T01:02:57.238Z,15.10
2023-05-20T01:05:42.995Z,15.10
2023-05-20T01:08:28.834Z,15.10
2023-05-20T01:11:29.767Z,15.10
2023-05-20T01:14:17.837Z,15.00
2023-05-20T01:17:09.644Z,14.90
2023-05-20T01:19:56.594Z,14.80
2023-05-20T01:22:48.833Z,14.80
2023-05-20T01:25:34.274Z,14.80
2023-05-20T01:28:19.906Z,14.70
2023-05-20T01:31:05.950Z,14.70
2023-05-20T01:33:53.255Z,14.70
2023-05-20T01:36:39.744Z,14.70
2023-05-20T01:39:25.536Z,14.70
2023-05-20T01:42:11.634Z,14.70
2023-05-20T01:44:57.444Z,14.70
2023-05-20T01:47:45.429Z,14.70
2023-05-20T01:50:30.950Z,14.50
2023-05-20T01:53:16.569Z,14.50
2023-05-20T01:56:02.288Z,14.50
2023-05-20T01:58:48.409Z,14.50
2023-05-20T02:01:34.167Z,14.50
2023-05-20T02:04:19.727Z,14.50
2023-05-20T02:07:05.534Z,14.50
2023-05-20T02:09:51.069Z,14.40
2023-05-20T02:12:36.566Z,14.30
2023-05-20T02:15:22.363Z,14.30
2023-05-20T02:18:08.504Z,16.40
2023-05-20T02:20:53.970Z,14.20
2023-05-20T02:23:39.677Z,14.20
2023-05-20T02:26:25.374Z,14.20
2023-05-20T02:29:11.000Z,14.20
2023-05-20T02:31:56.567Z,14.20
2023-05-20T02:34:42.182Z,14.10
2023-05-20T02:37:28.887Z,14.10
2023-05-20T02:40:14.674Z,14.10
2023-05-20T02:43:00.262Z,14.00
2023-05-20T02:45:45.680Z,13.90
2023-05-20T02:48:32.377Z,14.00
2023-05-20T02:51:17.891Z,14.00
2023-05-20T02:54:05.167Z,14.00
2023-05-20T02:56:50.772Z,14.00
2023-05-20T02:59:36.473Z,14.00
2023-05-20T03:02:23.578Z,13.90
2023-05-20T03:05:09.780Z,13.80
2023-05-20T03:07:55.610Z,13.70
2023-05-20T03:10:41.273Z,13.80
2023-05-20T03:13:27.006Z,13.80
2023-05-20T03:16:13.277Z,13.80
2023-05-20T03:18:58.668Z,13.90
2023-05-20T03:21:46.645Z,13.80
2023-05-20T03:24:32.502Z,13.80
2023-05-20T03:27:17.928Z,13.70
2023-05-20T03:30:05.105Z,13.60
2023-05-20T03:32:51.580Z,13.70
2023-05-20T03:35:37.425Z,13.50
2023-05-20T03:38:23.520Z,13.50
2023-05-20T03:41:09.150Z,13.40
2023-05-20T03:43:54.803Z,13.40
2023-05-20T03:46:40.531Z,13.50
2023-05-20T03:49:26.238Z,13.40
2023-05-20T03:52:11.976Z,13.40
2023-05-20T03:54:57.530Z,13.40
2023-05-20T03:57:43.312Z,13.30
2023-05-20T04:00:31.421Z,13.30
2023-05-20T04:03:17.173Z,13.30
2023-05-20T04:06:03.466Z,13.30
2023-05-20T04:08:50.328Z,13.20
2023-05-20T04:11:35.881Z,13.20
2023-05-20T04:14:21.301Z,13.30
2023-05-20T04:17:07.016Z,13.30
2023-05-20T04:19:52.619Z,13.20
2023-05-20T04:22:39.553Z,13.20
2023-05-20T04:25:26.206Z,13.20
2023-05-20T04:28:14.109Z,13.10
2023-05-20T04:31:00.324Z,13.20
2023-05-20T04:33:46.678Z,13.30
2023-05-20T04:36:34.677Z,13.40
2023-05-20T04:39:22.820Z,13.40
2023-05-20T04:42:11.295Z,13.70
2023-05-20T04:44:58.168Z,13.70
2023-05-20T04:47:46.108Z,13.80
2023-05-20T04:50:33.067Z,14.00
2023-05-20T04:53:18.931Z,14.10
2023-05-20T04:56:05.767Z,14.10
2023-05-20T04:58:51.838Z,14.20
2023-05-20T05:01:38.602Z,14.20
2023-05-20T05:04:24.637Z,14.10
2023-05-20T05:07:11.054Z,14.10
2023-05-20T05:09:57.355Z,14.00
2023-05-20T05:12:43.220Z,14.00
2023-05-20T05:15:29.418Z,14.10
2023-05-20T05:18:18.636Z,14.20
2023-05-20T05:21:05.941Z,14.20
2023-05-20T05:23:55.245Z,14.30
2023-05-20T05:26:42.536Z,14.30
2023-05-20T05:29:27.954Z,14.40
2023-05-20T05:32:13.577Z,14.30
2023-05-20T05:34:59.220Z,14.30
2023-05-20T05:37:46.608Z,14.30
2023-05-20T05:40:32.365Z,14.30
2023-05-20T05:43:18.050Z,14.30
2023-05-20T05:46:06.042Z,14.30
2023-05-20T05:48:51.911Z,14.40
2023-05-20T05:51:39.008Z,14.50
2023-05-20T05:54:25.432Z,18.30
2023-05-20T05:57:12.613Z,14.60
2023-05-20T05:59:58.737Z,14.70
2023-05-20T06:02:45.288Z,14.80
2023-05-20T06:05:35.028Z,14.70
2023-05-20T06:08:20.909Z,14.90
2023-05-20T06:11:07.043Z,14.90
2023-05-20T06:13:52.772Z,14.90
2023-05-20T06:16:38.594Z,14.90
2023-05-20T06:19:25.062Z,15.00
2023-05-20T06:22:10.756Z,15.00
2023-05-20T06:24:56.922Z,15.10
2023-05-20T06:27:42.319Z,15.20
2023-05-20T06:30:30.502Z,15.10
2023-05-20T06:33:16.132Z,15.20
2023-05-20T06:36:02.388Z,15.30
2023-05-20T06:38:49.527Z,15.40
2023-05-20T06:41:35.608Z,15.50
2023-05-20T06:44:27.433Z,15.60
2023-05-20T06:47:39.304Z,15.60
2023-05-20T06:50:28.299Z,15.70
2023-05-20T06:53:13.718Z,15.80
2023-05-20T06:55:59.209Z,16.00
2023-05-20T06:58:45.335Z,16.10
2023-05-20T07:01:31.040Z,16.10
2023-05-20T07:04:16.762Z,16.20
2023-05-20T07:07:02.594Z,16.20
2023-05-20T07:09:48.141Z,16.30
2023-05-20T07:12:36.531Z,16.40
2023-05-20T07:15:22.828Z,16.50
2023-05-20T07:18:08.536Z,16.50
2023-05-20T07:20:54.282Z,16.60
2023-05-20T07:24:06.321Z,16.60
2023-05-20T07:26:52.424Z,16.70
2023-05-20T07:29:38.157Z,16.70
2023-05-20T07:32:23.857Z,16.80
2023-05-20T07:35:09.571Z,16.80
2023-05-20T07:37:55.082Z,16.80
2023-05-20T07:40:41.528Z,16.70
2023-05-20T07:43:28.205Z,16.90
2023-05-20T07:46:13.662Z,17.00
2023-05-20T07:48:59.389Z,17.00
2023-05-20T07:51:46.985Z,17.10
2023-05-20T07:54:34.662Z,17.20
2023-05-20T07:57:20.099Z,17.30
2023-05-20T08:00:06.364Z,17.40
2023-05-20T08:03:02.959Z,17.50
2023-05-20T08:06:04.523Z,17.50
2023-05-20T08:08:50.194Z,17.60
2023-05-20T08:11:40.488Z,17.60
2023-05-20T08:14:27.283Z,17.70
2023-05-20T08:17:16.022Z,17.70
2023-05-20T08:20:02.603Z,17.80
2023-05-20T08:22:48.599Z,17.80
2023-05-20T08:25:34.388Z,17.80
2023-05-20T08:28:20.890Z,17.90
2023-05-20T08:31:06.666Z,18.00
2023-05-20T08:33:52.258Z,18.10
2023-05-20T08:36:37.826Z,18.10
2023-05-20T08:39:23.607Z,18.20
2023-05-20T08:42:11.677Z,18.30
2023-05-20T08:44:59.245Z,18.40
2023-05-20T08:47:47.568Z,18.40
2023-05-20T08:50:33.218Z,18.50
2023-05-20T08:53:19.279Z,18.60
2023-05-20T08:56:05.289Z,18.60
2023-05-20T08:58:51.184Z,18.60
2023-05-20T09:01:39.588Z,18.70
2023-05-20T09:04:25.210Z,18.70
2023-05-20T09:07:10.785Z,18.70
2023-05-20T09:09:56.252Z,18.70
2023-05-20T09:12:41.930Z,18.70
2023-05-20T09:15:27.285Z,18.70
2023-05-20T09:18:13.442Z,18.80
2023-05-20T09:20:58.815Z,18.80
2023-05-20T09:23:48.211Z,18.80
2023-05-20T09:26:33.557Z,18.80
2023-05-20T09:29:21.758Z,18.90
2023-05-20T09:32:07.353Z,18.90
2023-05-20T09:34:52.739Z,18.90
2023-05-20T09:37:38.808Z,19.00
2023-05-20T09:40:26.326Z,19.00
2023-05-20T09:43:12.491Z,19.00
2023-05-20T09:45:59.587Z,19.00
2023-05-20T09:48:45.557Z,19.00
2023-05-20T09:51:32.121Z,19.00
2023-05-20T09:54:21.194Z,19.00
2023-05-20T09:57:07.409Z,19.10
2023-05-20T09:59:53.434Z,19.10
2023-05-20T10:02:41.991Z,19.10
2023-05-20T10:05:33.557Z,19.10
2023-05-20T10:08:42.285Z,19.10
2023-05-20T10:11:40.203Z,19.20
2023-05-20T10:14:28.907Z,19.20
2023-05-20T10:17:25.373Z,19.30
2023-05-20T10:20:13.706Z,19.30
2023-05-20T10:22:59.262Z,19.30
2023-05-20T10:25:50.542Z,19.40
2023-05-20T10:28:37.243Z,19.40
2023-05-20T10:31:23.607Z,19.40
2023-05-20T10:34:14.592Z,19.40
2023-05-20T10:37:00.686Z,19.40
2023-05-20T10:39:46.399Z,19.50
2023-05-20T10:42:31.962Z,19.50
2023-05-20T10:45:27.750Z,19.60
2023-05-20T10:48:20.346Z,19.60
2023-05-20T10:51:11.282Z,19.60
2023-05-20T10:53:56.985Z,19.60
2023-05-20T10:56:51.525Z,19.60
2023-05-20T10:59:37.268Z,19.70
2023-05-20T11:02:28.878Z,19.70
2023-05-20T11:05:16.879Z,19.70
2023-05-20T11:08:06.147Z,19.70
2023-05-20T11:10:56.793Z,19.70
2023-05-20T11:13:42.396Z,19.70
2023-05-20T11:16:28.145Z,19.80
2023-05-20T11:19:17.265Z,19.80
2023-05-20T11:22:02.971Z,19.90
2023-05-20T11:24:48.739Z,19.90
2023-05-20T11:27:34.269Z,20.00
2023-05-20T11:30:20.718Z,20.00
2023-05-20T11:33:06.259Z,20.10
2023-05-20T11:35:52.914Z,20.10
2023-05-20T11:38:40.495Z,20.10
2023-05-20T11:41:26.652Z,20.10
2023-05-20T11:44:15.117Z,20.10
2023-05-20T11:47:01.561Z,20.10
2023-05-20T11:52:34.989Z,20.10
2023-05-20T11:55:20.598Z,20.10
2023-05-20T11:58:06.140Z,20.20
2023-05-20T12:00:57.162Z,20.20
2023-05-20T12:03:51.505Z,20.20
2023-05-20T12:06:46.821Z,20.30
2023-05-20T12:09:32.075Z,20.30
2023-05-20T12:12:17.694Z,20.20
2023-05-20T12:15:04.321Z,20.30
2023-05-20T12:17:50.909Z,20.30
2023-05-20T12:20:37.675Z,20.30
2023-05-20T12:23:23.601Z,20.40
2023-05-20T12:26:09.175Z,20.40
2023-05-20T12:28:55.291Z,20.40
2023-05-20T12:31:40.797Z,20.50
2023-05-20T12:34:26.227Z,20.50
2023-05-20T12:37:11.709Z,20.50
2023-05-20T12:39:57.378Z,20.50
2023-05-20T12:42:44.423Z,20.50
2023-05-20T12:45:30.095Z,20.50
2023-05-20T12:48:15.756Z,20.50
2023-05-20T12:51:01.618Z,20.40
2023-05-20T12:53:47.229Z,20.40
2023-05-20T12:56:33.004Z,20.40
2023-05-20T12:59:18.603Z,20.40
2023-05-20T13:02:04.326Z,20.40
2023-05-20T13:04:50.772Z,20.50
2023-05-20T13:07:36.379Z,20.60
2023-05-20T13:10:22.416Z,20.70
2023-05-20T13:13:07.907Z,20.70
2023-05-20T13:15:54.740Z,20.80
2023-05-20T13:18:40.061Z,20.80
2023-05-20T13:21:25.627Z,20.80
2023-05-20T13:24:11.101Z,20.80
2023-05-20T13:26:56.734Z,20.90
2023-05-20T13:29:43.656Z,21.10
2023-05-20T13:32:28.961Z,21.20
2023-05-20T13:35:16.710Z,21.30
2023-05-20T13:38:02.324Z,21.40
2023-05-20T13:40:49.153Z,21.40
2023-05-20T13:43:34.580Z,21.40
2023-05-20T13:46:20.187Z,21.40
2023-05-20T13:49:05.958Z,21.60
2023-05-20T13:51:51.491Z,21.90
2023-05-20T13:54:37.221Z,22.10
2023-05-20T13:57:23.529Z,22.10
2023-05-20T14:00:09.413Z,22.10
2023-05-20T14:02:55.353Z,22.00
2023-05-20T14:05:40.836Z,21.90
2023-05-20T14:08:26.470Z,21.70
2023-05-20T14:11:12.095Z,21.60
2023-05-20T14:13:57.440Z,21.50
2023-05-20T14:16:43.302Z,21.40
2023-05-20T14:19:29.187Z,21.30
2023-05-20T14:22:15.736Z,21.20
2023-05-20T14:25:01.439Z,21.20
2023-05-20T14:27:47.091Z,21.10
2023-05-20T14:30:32.935Z,21.10
2023-05-20T14:33:18.417Z,21.00
2023-05-20T14:36:04.142Z,21.00
2023-05-20T14:38:49.893Z,20.90
2023-05-20T14:41:35.180Z,20.90
2023-05-20T14:44:20.921Z,20.90
2023-05-20T14:47:06.609Z,20.80
2023-05-20T14:49:52.295Z,20.80
2023-05-20T14:52:37.775Z,20.80
2023-05-20T14:55:23.333Z,20.80
2023-05-20T14:58:08.902Z,20.80
2023-05-20T15:00:54.734Z,20.80
2023-05-20T15:03:40.399Z,20.70
2023-05-20T15:06:26.042Z,20.70
2023-05-20T15:09:11.821Z,20.70
2023-05-20T15:11:57.544Z,20.60
2023-05-20T15:14:43.193Z,20.60
2023-05-20T15:17:28.795Z,20.60
2023-05-20T15:20:14.579Z,20.60
2023-05-20T15:23:01.026Z,20.60
2023-05-20T15:25:48.539Z,20.50
2023-05-20T15:28:34.009Z,20.50
2023-05-20T15:31:19.490Z,20.50
2023-05-20T15:34:05.267Z,20.50
2023-05-20T15:36:50.832Z,20.50
2023-05-20T15:39:37.245Z,20.50
2023-05-20T15:42:22.969Z,20.50
2023-05-20T15:45:09.341Z,20.50
2023-05-20T15:47:54.907Z,20.50
2023-05-20T15:50:40.671Z,20.50
2023-05-20T15:53:26.020Z,20.40
2023-05-20T15:56:12.302Z,20.40
2023-05-20T15:58:57.635Z,20.40
2023-05-20T16:01:43.130Z,20.40
2023-05-20T16:04:28.978Z,20.40
2023-05-20T16:07:14.943Z,20.40
2023-05-20T16:10:00.285Z,20.40
2023-05-20T16:12:46.131Z,20.40
2023-05-20T16:15:36.649Z,20.30
2023-05-20T16:18:23.236Z,20.30
2023-05-20T16:21:08.816Z,20.40
2023-05-20T16:23:54.488Z,20.30
2023-05-20T16:26:39.996Z,20.30
2023-05-20T16:29:25.748Z,20.30
2023-05-20T16:32:11.796Z,20.30
2023-05-20T16:34:57.659Z,20.30
2023-05-20T16:37:44.478Z,20.30
2023-05-20T16:40:30.051Z,20.30
2023-05-20T16:43:16.034Z,20.30
2023-05-20T16:46:01.716Z,20.30
2023-05-20T16:48:47.231Z,20.30
2023-05-20T16:51:32.794Z,20.30
2023-05-20T16:54:18.401Z,20.40
2023-05-20T16:57:04.502Z,20.30
2023-05-20T16:59:50.189Z,20.40
2023-05-20T17:02:36.192Z,20.40
2023-05-20T17:05:22.115Z,20.40
2023-05-20T17:08:07.669Z,20.40
2023-05-20T17:10:54.354Z,20.40
2023-05-20T17:13:41.633Z,20.40
2023-05-20T17:16:27.096Z,20.40
2023-05-20T17:19:12.714Z,20.40
2023-05-20T17:21:58.201Z,20.40
2023-05-20T17:24:43.968Z,20.40
2023-05-20T17:27:29.757Z,20.40
2023-05-20T17:30:16.051Z,20.40
2023-05-20T17:33:01.919Z,20.40
2023-05-20T17:35:47.447Z,20.40
2023-05-20T17:38:33.278Z,20.40
2023-05-20T17:41:19.225Z,20.30
2023-05-20T17:44:05.381Z,20.30
2023-05-20T17:46:51.267Z,20.30
2023-05-20T17:49:36.717Z,20.30
2023-05-20T17:52:22.259Z,17.40
2023-05-20T17:55:08.209Z,20.20
2023-05-20T17:57:53.520Z,20.20
2023-05-20T18:00:42.246Z,20.20
2023-05-20T18:03:27.917Z,20.20
2023-05-20T18:06:13.342Z,20.10
2023-05-20T18:09:00.039Z,20.00
2023-05-20T18:11:45.527Z,19.80
2023-05-20T18:14:30.988Z,19.60
2023-05-20T18:17:16.697Z,19.60
2023-05-20T18:20:02.122Z,19.50
2023-05-20T18:22:50.361Z,19.40
2023-05-20T18:25:35.901Z,19.30
2023-05-20T18:28:21.585Z,19.20
2023-05-20T18:31:07.307Z,19.20
2023-05-20T18:33:52.747Z,19.10
2023-05-20T18:36:38.350Z,19.00
2023-05-20T18:39:24.089Z,19.00
2023-05-20T18:42:09.381Z,19.00
2023-05-20T18:44:55.129Z,18.90
2023-05-20T18:47:42.262Z,18.90
2023-05-20T18:50:31.632Z,18.90
2023-05-20T18:53:20.211Z,18.80
2023-05-20T18:56:06.931Z,18.80
2023-05-20T18:58:52.590Z,18.80
2023-05-20T19:01:39.551Z,18.70
2023-05-20T19:04:25.670Z,18.70
2023-05-20T19:07:11.725Z,18.70
2023-05-20T19:09:57.206Z,18.70
2023-05-20T19:12:43.644Z,18.70
2023-05-20T19:15:31.181Z,18.70
2023-05-20T19:18:16.680Z,18.60
2023-05-20T19:21:02.174Z,18.60
2023-05-20T19:23:48.851Z,18.60
2023-05-20T19:26:34.605Z,18.60
2023-05-20T19:29:19.951Z,18.50
2023-05-20T19:32:06.012Z,18.50
2023-05-20T19:34:51.552Z,18.50
2023-05-20T19:37:37.257Z,18.40
2023-05-20T19:40:23.033Z,18.40
2023-05-20T19:43:08.579Z,18.40
2023-05-20T19:45:54.379Z,18.40
2023-05-20T19:48:39.806Z,18.30
2023-05-20T19:51:25.292Z,18.30
2023-05-20T19:54:11.149Z,18.30
2023-05-20T19:56:56.515Z,18.30
2023-05-20T19:59:42.203Z,18.20
2023-05-20T20:02:27.913Z,18.20
2023-05-20T20:05:13.544Z,18.20
2023-05-20T20:07:59.133Z,18.20
2023-05-20T20:10:44.516Z,18.20
2023-05-20T20:13:30.660Z,18.10
2023-05-20T20:16:16.083Z,18.10
2023-05-20T20:19:01.628Z,18.00
2023-05-20T20:21:48.350Z,18.00
2023-05-20T20:24:34.185Z,18.00
2023-05-20T20:27:20.492Z,17.90
2023-05-20T20:30:06.270Z,17.90
2023-05-20T20:32:53.399Z,17.90
2023-05-20T20:35:39.090Z,17.90
2023-05-20T20:38:24.581Z,17.90
2023-05-20T20:41:10.057Z,17.90
2023-05-20T20:43:55.376Z,17.90
2023-05-20T20:46:41.503Z,17.80
2023-05-20T20:49:28.566Z,17.80
2023-05-20T20:52:14.244Z,17.70
2023-05-20T20:54:59.934Z,17.70
2023-05-20T20:57:45.312Z,17.60
2023-05-20T21:00:31.026Z,17.60
2023-05-20T21:03:16.598Z,17.50
2023-05-20T21:06:02.558Z,17.50
2023-05-20T21:08:48.001Z,17.50
2023-05-20T21:11:34.635Z,17.50
2023-05-20T21:14:20.074Z,17.40
2023-05-20T21:17:05.729Z,17.40
2023-05-20T21:19:51.194Z,17.30
2023-05-20T21:22:36.905Z,17.30
2023-05-20T21:25:22.669Z,17.30
2023-05-20T21:28:08.551Z,17.20
2023-05-20T21:30:54.144Z,17.20
2023-05-20T21:33:39.914Z,17.10
2023-05-20T21:36:25.553Z,17.10
2023-05-20T21:39:11.217Z,17.10
2023-05-20T21:41:56.829Z,17.10
2023-05-20T21:44:42.460Z,17.00
2023-05-20T21:47:28.264Z,17.00
2023-05-20T21:50:13.932Z,17.00
2023-05-20T21:52:59.290Z,17.10
2023-05-20T21:55:45.110Z,17.00
2023-05-20T21:58:30.723Z,17.00
2023-05-20T22:01:16.134Z,17.00
2023-05-20T22:04:03.254Z,17.00
2023-05-20T22:06:50.701Z,16.90
2023-05-20T22:09:36.396Z,16.90
2023-05-20T22:12:22.897Z,16.90
2023-05-20T22:15:08.740Z,16.90
2023-05-20T22:17:54.838Z,16.90
2023-05-20T22:20:40.110Z,16.90
2023-05-20T22:23:26.714Z,16.90
2023-05-20T22:26:12.213Z,16.90
2023-05-20T22:28:57.426Z,16.80
2023-05-20T22:31:43.330Z,13.10
2023-05-20T22:34:28.537Z,16.80
2023-05-20T22:37:14.212Z,16.80
2023-05-20T22:39:59.867Z,16.80
2023-05-20T22:42:45.563Z,16.70
2023-05-20T22:45:31.073Z,16.70
2023-05-20T22:48:16.613Z,16.70
2023-05-20T22:51:03.890Z,16.70
2023-05-20T22:53:49.708Z,16.60
2023-05-20T22:56:35.187Z,16.60
2023-05-20T22:59:21.357Z,16.50
2023-05-20T23:02:06.835Z,16.50
2023-05-20T23:04:52.583Z,16.40
2023-05-20T23:07:38.398Z,16.40
2023-05-20T23:10:26.932Z,16.40
2023-05-20T23:13:12.530Z,16.40
2023-05-20T23:15:58.120Z,16.40
2023-05-20T23:18:43.758Z,16.40
2023-05-20T23:21:29.409Z,16.30
2023-05-20T23:24:16.728Z,16.30
2023-05-20T23:27:03.445Z,16.30
2023-05-20T23:29:48.807Z,16.20
2023-05-20T23:32:34.518Z,16.20
2023-05-20T23:35:19.806Z,19.60
2023-05-20T23:38:05.359Z,16.20
2023-05-20T23:40:50.933Z,16.20
2023-05-20T23:43:36.464Z,16.10
2023-05-20T23:46:21.965Z,16.10
2023-05-20T23:49:10.072Z,16.10
2023-05-20T23:51:55.962Z,16.10
2023-05-20T23:54:41.685Z,16.00
2023-05-20T23:57:27.437Z,16.00
